Hesperia, Michigan
Current Conditions -  °F | °C
As of 8:51 AM on Friday 31 Oct 2014 (Local Time) from KFFX Reporting Station
Drizzle Drizzle  
Wind Chill: 32°   Ceiling: 800
Heat Index: 38°   Visibility: 5mi
Dew Point: 37°   Wind: 8mph
Humidity: 97%   Direction: 340°NNW
Pressure: 29.92"   Gusts: NA
Location:  43.57°N, 86.04°W
Report Text: KFFX 311251Z AUTO 34007KT 5SM DZ OVC008 03/03 A2992 RMK AO2 T00320027
Loading
Personal Weather Stations






























Interactive Weather Map New forecast layout! Learn more

10-Day Weather Forecast

Advertisements
Track Severe Weather on mobile